Stena Atlantica — ZCPR7 — position and weather

sailwx.info

Track history (hours):
 
Tides and Currents Weather Stations Pressure Air Temp Water Temp Dewpoint Dewpoint Depression Visibility Wind Speed Wind Dir Waves Ship Positions

Stena Atlantica

Last reported at 2015-Jan-27 08:11 UTC. Time now 2015-Jan-27 18:58 UTC.
Position N 51°20' E 004°18'.

Length 245 m; draft 14 m.

Type: Tanker. MMSI: 319161000.

Date/timePositionNaut miles runAvg speedWind from/ knotsBaromVisibWave heightAir tempDewpointWater temp
2015-Jan-27 08:11N 51°20' E 004°18'0 0.7
2015-Jan-27 07:34N 51°21' E 004°17'0 0.2
2015-Jan-27 06:34N 51°21' E 004°17'0 0.3
2015-Jan-27 05:34N 51°21' E 004°16'6 6.0
2015-Jan-27 04:33N 51°22' E 004°07'8 7.6
2015-Jan-27 03:33N 51°22' E 003°55'1010.4
2015-Jan-27 02:33N 51°26' E 003°40'1110.5
2015-Jan-27 01:33N 51°25' E 003°23'1111.2
2015-Jan-27 00:33N 51°24' E 003°05'1010.4
2015-Jan-26 23:33N 51°25' E 002°49'7 7.2
2015-Jan-26 22:33N 51°22' E 002°39'3 2.7
2015-Jan-26 21:33N 51°22' E 002°34'4 4.0
2015-Jan-26 20:33N 51°22' E 002°28'4 3.8
2015-Jan-26 19:33N 51°20' E 002°22'5 4.8
2015-Jan-26 18:31N 51°19' E 002°15'7 7.4
2015-Jan-26 17:33N 51°22' E 002°04'6 6.0
2015-Jan-26 16:33N 51°27' E 001°60'5 5.1
2015-Jan-26 15:33N 51°30' E 002°06'4 4.1
2015-Jan-26 14:33N 51°33' E 002°11'5 4.5
2015-Jan-26 13:33N 51°37' E 002°15'5 5.1
2015-Jan-26 12:33N 51°41' E 002°21'6 5.5
2015-Jan-26 11:33N 51°45' E 002°27'15510.7
2015-Jan-25 21:05N 54°05' E 004°16'812.3
2015-Jan-25 20:26N 54°12' E 004°23'3612.3
2015-Jan-25 17:30N 54°43' E 004°54'1212.2
2015-Jan-25 16:32N 54°53' E 005°05'25211.0
2015-Jan-24 17:33N 57°49' E 010°30'1010.4
2015-Jan-24 16:33N 57°47' E 010°49'10 9.7
2015-Jan-24 15:33N 57°40' E 011°01'1211.5
2015-Jan-24 14:33N 57°32' E 011°17'1111.4
2015-Jan-24 13:33N 57°23' E 011°29'1211.9
2015-Jan-24 12:33N 57°12' E 011°37'1211.9
2015-Jan-24 11:33N 57°01' E 011°44'1212.0
2015-Jan-24 10:33N 56°49' E 011°51'1111.4
2015-Jan-24 09:33N 56°38' E 011°46'3611.9
2015-Jan-24 06:32N 56°08' E 011°12'9210.2
2015-Jan-23 21:33N 54°36' E 011°00'1110.9
2015-Jan-23 20:33N 54°34' E 011°19'1212.3
2015-Jan-23 19:33N 54°29' E 011°38'1212.1
2015-Jan-23 18:33N 54°26' E 011°58'8 8.5
2015-Jan-23 17:33N 54°29' E 012°12'9 9.0
2015-Jan-23 16:33N 54°37' E 012°19'9 9.2
2015-Jan-23 15:33N 54°42' E 012°32'9 9.3
2015-Jan-23 14:33N 54°45' E 012°48'1111.0
2015-Jan-23 13:33N 54°51' E 013°04'1312.2
2015-Jan-23 12:30N 54°56' E 013°24'1212.5
2015-Jan-23 11:33N 54°60' E 013°44'1511.8
2015-Jan-23 10:19N 55°06' E 014°07'911.9
2015-Jan-23 09:33N 55°10' E 014°21'1212.2
2015-Jan-23 08:33N 55°17' E 014°39'10 9.6
2015-Jan-23 07:33N 55°19' E 014°55'10 9.7
2015-Jan-23 06:33N 55°23' E 015°11'1211.7
2015-Jan-23 05:34N 55°28' E 015°29'35411.8
2015-Jan-21 23:31N 59°37' E 023°18'812.2
2015-Jan-21 22:50N 59°39' E 023°34'112.2
2015-Jan-21 22:46N 59°40' E 023°35'312.3
2015-Jan-21 22:33N 59°40' E 023°41'1212.2
2015-Jan-21 21:32N 59°44' E 024°04'1212.2
2015-Jan-21 20:33N 59°47' E 024°27'4112.2
2015-Jan-21 17:14N 59°55' E 025°46'912.2
2015-Jan-21 16:31N 59°57' E 026°03'1312.1
2015-Jan-21 15:26N 60°00' E 026°28'1111.9
2015-Jan-21 14:33N 60°00' E 026°49'1211.5
2015-Jan-21 13:29N 60°02' E 027°13'1412.3
2015-Jan-21 12:23N 60°09' E 027°37'  
Track history (hours):
 
Tides and Currents Weather Stations Pressure Air Temp Water Temp Dewpoint Dewpoint Depression Visibility Wind Speed Wind Dir Waves Ship Positions

Stena Atlantica

Last reported at 2015-Jan-27 08:11 UTC. Time now 2015-Jan-27 18:58 UTC.
Position N 51°20' E 004°18'.

Length 245 m; draft 14 m.

Type: Tanker. MMSI: 319161000.

Date/timePositionNaut miles runAvg speedWind from/ knotsBaromVisibWave heightAir tempDewpointWater temp
2015-Jan-27 08:11N 51°20' E 004°18'0 0.7
2015-Jan-27 07:34N 51°21' E 004°17'0 0.2
2015-Jan-27 06:34N 51°21' E 004°17'0 0.3
2015-Jan-27 05:34N 51°21' E 004°16'6 6.0
2015-Jan-27 04:33N 51°22' E 004°07'8 7.6
2015-Jan-27 03:33N 51°22' E 003°55'1010.4
2015-Jan-27 02:33N 51°26' E 003°40'1110.5
2015-Jan-27 01:33N 51°25' E 003°23'1111.2
2015-Jan-27 00:33N 51°24' E 003°05'1010.4
2015-Jan-26 23:33N 51°25' E 002°49'7 7.2
2015-Jan-26 22:33N 51°22' E 002°39'3 2.7
2015-Jan-26 21:33N 51°22' E 002°34'4 4.0
2015-Jan-26 20:33N 51°22' E 002°28'4 3.8
2015-Jan-26 19:33N 51°20' E 002°22'5 4.8
2015-Jan-26 18:31N 51°19' E 002°15'7 7.4
2015-Jan-26 17:33N 51°22' E 002°04'6 6.0
2015-Jan-26 16:33N 51°27' E 001°60'5 5.1
2015-Jan-26 15:33N 51°30' E 002°06'4 4.1
2015-Jan-26 14:33N 51°33' E 002°11'5 4.5
2015-Jan-26 13:33N 51°37' E 002°15'5 5.1
2015-Jan-26 12:33N 51°41' E 002°21'6 5.5
2015-Jan-26 11:33N 51°45' E 002°27'15510.7
2015-Jan-25 21:05N 54°05' E 004°16'812.3
2015-Jan-25 20:26N 54°12' E 004°23'3612.3
2015-Jan-25 17:30N 54°43' E 004°54'1212.2
2015-Jan-25 16:32N 54°53' E 005°05'25211.0
2015-Jan-24 17:33N 57°49' E 010°30'1010.4
2015-Jan-24 16:33N 57°47' E 010°49'10 9.7
2015-Jan-24 15:33N 57°40' E 011°01'1211.5
2015-Jan-24 14:33N 57°32' E 011°17'1111.4
2015-Jan-24 13:33N 57°23' E 011°29'1211.9
2015-Jan-24 12:33N 57°12' E 011°37'1211.9
2015-Jan-24 11:33N 57°01' E 011°44'1212.0
2015-Jan-24 10:33N 56°49' E 011°51'1111.4
2015-Jan-24 09:33N 56°38' E 011°46'3611.9
2015-Jan-24 06:32N 56°08' E 011°12'9210.2
2015-Jan-23 21:33N 54°36' E 011°00'1110.9
2015-Jan-23 20:33N 54°34' E 011°19'1212.3
2015-Jan-23 19:33N 54°29' E 011°38'1212.1
2015-Jan-23 18:33N 54°26' E 011°58'8 8.5
2015-Jan-23 17:33N 54°29' E 012°12'9 9.0
2015-Jan-23 16:33N 54°37' E 012°19'9 9.2
2015-Jan-23 15:33N 54°42' E 012°32'9 9.3
2015-Jan-23 14:33N 54°45' E 012°48'1111.0
2015-Jan-23 13:33N 54°51' E 013°04'1312.2
2015-Jan-23 12:30N 54°56' E 013°24'1212.5
2015-Jan-23 11:33N 54°60' E 013°44'1511.8
2015-Jan-23 10:19N 55°06' E 014°07'911.9
2015-Jan-23 09:33N 55°10' E 014°21'1212.2
2015-Jan-23 08:33N 55°17' E 014°39'10 9.6
2015-Jan-23 07:33N 55°19' E 014°55'10 9.7
2015-Jan-23 06:33N 55°23' E 015°11'1211.7
2015-Jan-23 05:34N 55°28' E 015°29'35411.8
2015-Jan-21 23:31N 59°37' E 023°18'812.2
2015-Jan-21 22:50N 59°39' E 023°34'112.2
2015-Jan-21 22:46N 59°40' E 023°35'312.3
2015-Jan-21 22:33N 59°40' E 023°41'1212.2
2015-Jan-21 21:32N 59°44' E 024°04'1212.2
2015-Jan-21 20:33N 59°47' E 024°27'4112.2
2015-Jan-21 17:14N 59°55' E 025°46'912.2
2015-Jan-21 16:31N 59°57' E 026°03'1312.1
2015-Jan-21 15:26N 60°00' E 026°28'1111.9
2015-Jan-21 14:33N 60°00' E 026°49'1211.5
2015-Jan-21 13:29N 60°02' E 027°13'1412.3
2015-Jan-21 12:23N 60°09' E 027°37'  

Dump ship's entire track history